createdAt,value
2023-01-13T00:02:39.133Z,11.40
2023-01-13T00:05:25.673Z,11.40
2023-01-13T00:08:12.117Z,11.40
2023-01-13T00:11:00.070Z,11.40
2023-01-13T00:13:47.112Z,11.40
2023-01-13T00:16:33.474Z,11.40
2023-01-13T00:19:19.872Z,11.30
2023-01-13T00:22:06.349Z,11.30
2023-01-13T00:24:52.814Z,11.30
2023-01-13T00:27:40.749Z,11.30
2023-01-13T00:30:27.840Z,11.20
2023-01-13T00:33:14.315Z,11.20
2023-01-13T00:36:01.630Z,11.30
2023-01-13T00:38:48.690Z,11.30
2023-01-13T00:41:49.243Z,11.30
2023-01-13T00:44:36.932Z,11.30
2023-01-13T00:47:24.277Z,11.30
2023-01-13T00:50:12.010Z,11.30
2023-01-13T00:53:01.195Z,11.30
2023-01-13T00:55:47.687Z,11.30
2023-01-13T00:58:35.660Z,11.30
2023-01-13T01:01:24.695Z,11.30
2023-01-13T01:04:12.082Z,11.20
2023-01-13T01:06:58.349Z,11.30
2023-01-13T01:09:44.607Z,11.20
2023-01-13T01:12:30.934Z,11.20
2023-01-13T01:15:17.490Z,11.20
2023-01-13T01:18:05.330Z,11.20
2023-01-13T01:20:52.171Z,11.20
2023-01-13T01:23:39.792Z,11.20
2023-01-13T01:26:27.776Z,11.20
2023-01-13T01:29:15.639Z,11.30
2023-01-13T01:32:02.267Z,11.20
2023-01-13T01:34:51.361Z,11.10
2023-01-13T01:37:37.967Z,11.10
2023-01-13T01:40:24.331Z,11.10
2023-01-13T01:43:33.485Z,11.10
2023-01-13T01:46:20.013Z,11.20
2023-01-13T01:49:18.641Z,11.10
2023-01-13T01:52:10.322Z,11.00
2023-01-13T01:55:01.587Z,11.00
2023-01-13T01:57:53.618Z,11.00
2023-01-13T02:00:40.367Z,11.00
2023-01-13T02:03:27.388Z,11.00
2023-01-13T02:06:15.802Z,11.00
2023-01-13T02:09:03.484Z,11.00
2023-01-13T02:12:07.228Z,11.00
2023-01-13T02:14:53.839Z,11.00
2023-01-13T02:17:59.752Z,11.00
2023-01-13T02:20:55.512Z,11.00
2023-01-13T02:24:21.821Z,11.00
2023-01-13T02:27:59.011Z,11.00
2023-01-13T02:31:14.190Z,10.90
2023-01-13T02:34:08.492Z,10.90
2023-01-13T02:37:01.886Z,10.90
2023-01-13T02:39:55.831Z,10.90
2023-01-13T02:43:05.905Z,10.90
2023-01-13T02:45:57.861Z,10.90
2023-01-13T02:48:46.722Z,10.90
2023-01-13T02:51:34.401Z,10.80
2023-01-13T02:54:24.683Z,10.80
2023-01-13T02:57:13.192Z,10.80
2023-01-13T02:59:59.956Z,10.90
2023-01-13T03:02:48.798Z,10.90
2023-01-13T03:05:36.575Z,10.90
2023-01-13T03:08:39.720Z,10.90
2023-01-13T03:11:32.557Z,11.00
2023-01-13T03:14:35.441Z,11.00
2023-01-13T03:17:32.842Z,11.00
2023-01-13T03:20:26.660Z,11.10
2023-01-13T03:23:20.284Z,11.10
2023-01-13T03:26:09.447Z,11.10
2023-01-13T03:29:02.912Z,11.20
2023-01-13T03:31:56.576Z,11.20
2023-01-13T03:34:48.316Z,11.20
2023-01-13T03:37:40.386Z,11.20
2023-01-13T03:40:30.976Z,11.30
2023-01-13T03:43:38.395Z,11.30
2023-01-13T03:46:31.025Z,11.30
2023-01-13T03:49:22.723Z,11.40
2023-01-13T03:52:13.654Z,11.30
2023-01-13T03:55:06.461Z,11.30
2023-01-13T03:57:59.545Z,11.30
2023-01-13T04:00:58.361Z,11.30
2023-01-13T04:03:51.198Z,11.30
2023-01-13T04:06:43.688Z,11.30
2023-01-13T04:09:35.028Z,11.30
2023-01-13T04:12:49.143Z,11.30
2023-01-13T04:15:38.599Z,11.40
2023-01-13T04:18:26.643Z,11.40
2023-01-13T04:21:13.325Z,11.40
2023-01-13T04:23:59.756Z,11.40
2023-01-13T04:26:46.561Z,11.30
2023-01-13T04:29:34.502Z,11.30
2023-01-13T04:32:21.019Z,11.40
2023-01-13T04:35:08.459Z,11.40
2023-01-13T04:37:55.206Z,11.40
2023-01-13T04:40:41.908Z,11.40
2023-01-13T04:43:28.411Z,11.40
2023-01-13T04:46:16.758Z,11.40
2023-01-13T04:49:03.663Z,11.40
2023-01-13T04:51:50.121Z,11.40
2023-01-13T04:54:36.361Z,11.40
2023-01-13T04:57:22.933Z,11.30
2023-01-13T05:00:13.292Z,11.30
2023-01-13T05:03:01.347Z,11.30
2023-01-13T05:05:52.332Z,11.30
2023-01-13T05:08:38.544Z,11.30
2023-01-13T05:11:42.163Z,11.30
2023-01-13T05:14:46.519Z,11.30
2023-01-13T05:17:33.513Z,11.30
2023-01-13T05:20:21.536Z,11.30
2023-01-13T05:23:25.826Z,11.30
2023-01-13T05:26:13.070Z,11.30
2023-01-13T05:28:59.641Z,11.30
2023-01-13T05:31:46.032Z,11.30
2023-01-13T05:34:33.544Z,11.30
2023-01-13T05:37:21.358Z,11.30
2023-01-13T05:40:27.592Z,11.30
2023-01-13T05:43:22.638Z,11.30
2023-01-13T05:46:11.853Z,11.30
2023-01-13T05:48:59.848Z,11.30
2023-01-13T05:51:46.515Z,11.30
2023-01-13T05:54:34.518Z,11.30
2023-01-13T05:57:21.136Z,11.30
2023-01-13T06:00:09.020Z,11.30
2023-01-13T06:02:58.484Z,11.30
2023-01-13T06:05:44.812Z,11.30
2023-01-13T06:08:31.500Z,11.30
2023-01-13T06:11:19.482Z,11.30
2023-01-13T06:14:06.390Z,11.30
2023-01-13T06:16:52.742Z,11.30
2023-01-13T06:19:39.221Z,11.30
2023-01-13T06:22:32.299Z,11.30
2023-01-13T06:25:27.035Z,11.30
2023-01-13T06:28:15.008Z,11.30
2023-01-13T06:31:04.418Z,11.30
2023-01-13T06:33:57.662Z,11.30
2023-01-13T06:36:47.969Z,11.30
2023-01-13T06:39:35.958Z,11.40
2023-01-13T06:42:40.235Z,11.30
2023-01-13T06:45:30.188Z,11.30
2023-01-13T06:48:17.530Z,11.30
2023-01-13T06:51:04.180Z,11.30
2023-01-13T06:53:50.739Z,11.30
2023-01-13T06:56:37.199Z,11.30
2023-01-13T06:59:25.158Z,11.40
2023-01-13T07:02:12.875Z,11.30
2023-01-13T07:04:59.815Z,11.30
2023-01-13T07:07:46.380Z,11.30
2023-01-13T07:10:33.332Z,11.30
2023-01-13T07:13:37.533Z,11.40
2023-01-13T07:16:24.345Z,11.30
2023-01-13T07:19:12.425Z,11.30
2023-01-13T07:21:59.075Z,11.30
2023-01-13T07:24:45.477Z,11.30
2023-01-13T07:27:32.461Z,11.30
2023-01-13T07:30:19.805Z,11.30
2023-01-13T07:33:06.366Z,11.30
2023-01-13T07:35:59.478Z,11.20
2023-01-13T07:38:46.154Z,11.30
2023-01-13T07:41:50.175Z,11.20
2023-01-13T07:44:36.479Z,11.20
2023-01-13T07:47:23.730Z,11.10
2023-01-13T07:50:11.477Z,11.00
2023-01-13T07:53:00.458Z,10.80
2023-01-13T07:55:47.021Z,10.70
2023-01-13T07:58:34.655Z,10.70
2023-01-13T08:01:21.595Z,10.60
2023-01-13T08:04:08.064Z,10.50
2023-01-13T08:06:54.529Z,10.20
2023-01-13T08:09:42.182Z,10.00
2023-01-13T08:12:52.220Z,9.90
2023-01-13T08:15:43.107Z,9.80
2023-01-13T08:18:29.776Z,9.70
2023-01-13T08:21:16.880Z,9.70
2023-01-13T08:24:03.387Z,9.70
2023-01-13T08:26:51.517Z,9.70
2023-01-13T08:29:38.119Z,9.70
2023-01-13T08:32:24.520Z,9.70
2023-01-13T08:35:11.408Z,9.60
2023-01-13T08:37:58.485Z,9.60
2023-01-13T08:40:44.916Z,9.60
2023-01-13T08:43:32.673Z,9.60
2023-01-13T08:46:19.833Z,9.60
2023-01-13T08:49:06.719Z,9.60
2023-01-13T08:51:53.732Z,9.70
2023-01-13T08:54:40.567Z,9.70
2023-01-13T08:57:27.174Z,9.70
2023-01-13T09:00:17.046Z,9.70
2023-01-13T09:03:04.890Z,9.70
2023-01-13T09:05:51.600Z,9.70
2023-01-13T09:08:38.575Z,9.80
2023-01-13T09:11:49.173Z,9.70
2023-01-13T09:14:38.631Z,9.70
2023-01-13T09:17:27.344Z,9.80
2023-01-13T09:20:14.820Z,9.80
2023-01-13T09:23:01.617Z,9.80
2023-01-13T09:25:49.130Z,9.70
2023-01-13T09:28:35.553Z,9.80
2023-01-13T09:31:21.918Z,9.70
2023-01-13T09:34:32.700Z,9.70
2023-01-13T09:37:19.668Z,9.70
2023-01-13T09:40:09.523Z,9.70
2023-01-13T09:43:16.954Z,9.80
2023-01-13T09:46:32.106Z,9.80
2023-01-13T09:49:22.901Z,9.90
2023-01-13T09:52:15.793Z,9.90
2023-01-13T09:55:07.124Z,9.90
2023-01-13T09:57:53.964Z,9.90
2023-01-13T10:00:47.134Z,10.00
2023-01-13T10:03:36.115Z,10.00
2023-01-13T10:06:33.685Z,10.00
2023-01-13T10:09:26.817Z,10.00
2023-01-13T10:12:37.465Z,10.10
2023-01-13T10:15:27.456Z,10.30
2023-01-13T10:18:19.286Z,10.30
2023-01-13T10:21:22.342Z,10.50
2023-01-13T10:24:17.028Z,10.50
2023-01-13T10:27:05.710Z,10.40
2023-01-13T10:29:51.984Z,10.30
2023-01-13T10:32:38.415Z,10.10
2023-01-13T10:35:53.497Z,10.10
2023-01-13T10:38:42.308Z,10.00
2023-01-13T10:41:30.455Z,9.90
2023-01-13T10:44:20.193Z,9.80
2023-01-13T10:47:23.729Z,9.70
2023-01-13T10:50:28.181Z,9.70
2023-01-13T10:53:20.223Z,9.70
2023-01-13T10:56:07.273Z,9.70
2023-01-13T10:59:13.859Z,9.60
2023-01-13T11:02:13.086Z,9.70
2023-01-13T11:05:19.494Z,9.70
2023-01-13T11:08:06.697Z,9.90
2023-01-13T11:10:55.858Z,10.00
2023-01-13T11:14:05.607Z,9.90
2023-01-13T11:16:58.736Z,10.00
2023-01-13T11:19:50.687Z,10.00
2023-01-13T11:22:42.096Z,10.00
2023-01-13T11:25:33.436Z,10.00
2023-01-13T11:28:34.228Z,10.00
2023-01-13T11:31:26.790Z,10.00
2023-01-13T11:34:27.047Z,10.00
2023-01-13T11:37:19.220Z,9.90
2023-01-13T11:40:11.415Z,9.90
2023-01-13T11:43:06.012Z,9.90
2023-01-13T11:45:55.004Z,9.90
2023-01-13T11:48:44.141Z,9.90
2023-01-13T11:51:36.397Z,9.80
2023-01-13T11:54:46.921Z,9.70
2023-01-13T11:57:55.207Z,9.70
2023-01-13T12:00:58.894Z,9.60
2023-01-13T12:03:51.191Z,9.50
2023-01-13T12:06:41.054Z,9.50
2023-01-13T12:09:36.596Z,9.40
2023-01-13T12:12:35.917Z,9.10
2023-01-13T12:15:51.790Z,8.80
2023-01-13T12:18:56.053Z,8.60
2023-01-13T12:21:50.593Z,8.70
2023-01-13T12:24:39.826Z,8.70
2023-01-13T12:27:39.837Z,8.80
2023-01-13T12:30:30.418Z,8.90
2023-01-13T12:33:26.323Z,9.30
2023-01-13T12:36:18.726Z,9.50
2023-01-13T12:39:17.651Z,9.40
2023-01-13T12:42:27.034Z,9.40
2023-01-13T12:45:26.894Z,9.40
2023-01-13T12:48:49.246Z,9.70
2023-01-13T12:51:37.544Z,9.70
2023-01-13T12:55:08.989Z,9.70
2023-01-13T12:58:14.661Z,9.60
2023-01-13T13:01:06.780Z,9.50
2023-01-13T13:04:10.333Z,9.50
2023-01-13T13:07:08.646Z,9.50
2023-01-13T13:10:00.393Z,9.40
2023-01-13T13:13:21.030Z,9.40
2023-01-13T13:16:47.223Z,9.30
2023-01-13T13:19:48.800Z,9.30
2023-01-13T13:22:44.529Z,9.10
2023-01-13T13:25:31.404Z,9.00
2023-01-13T13:28:23.045Z,8.90
2023-01-13T13:31:25.848Z,8.80
2023-01-13T13:34:25.672Z,8.80
2023-01-13T13:37:55.063Z,8.90
2023-01-13T13:41:02.901Z,9.00
2023-01-13T13:44:09.295Z,9.10
2023-01-13T13:46:59.987Z,9.10
2023-01-13T13:49:50.641Z,9.30
2023-01-13T13:52:41.722Z,9.50
2023-01-13T13:55:30.468Z,9.60
2023-01-13T13:58:19.166Z,9.60
2023-01-13T14:01:07.563Z,9.60
2023-01-13T14:04:13.581Z,9.60
2023-01-13T14:07:02.161Z,9.40
2023-01-13T14:09:51.279Z,9.50
2023-01-13T14:12:39.493Z,9.40
2023-01-13T14:15:32.701Z,9.30
2023-01-13T14:18:22.138Z,9.20
2023-01-13T14:21:20.574Z,9.20
2023-01-13T14:24:16.047Z,9.10
2023-01-13T14:27:10.547Z,9.10
2023-01-13T14:30:01.032Z,9.00
2023-01-13T14:32:49.017Z,9.10
2023-01-13T14:35:36.853Z,9.10
2023-01-13T14:38:23.434Z,9.10
2023-01-13T14:41:13.017Z,9.10
2023-01-13T14:44:02.297Z,9.10
2023-01-13T14:46:49.893Z,9.10
2023-01-13T14:49:39.455Z,9.10
2023-01-13T14:52:29.762Z,9.20
2023-01-13T14:55:25.845Z,9.10
2023-01-13T14:58:25.026Z,9.00
2023-01-13T15:01:30.061Z,9.00
2023-01-13T15:04:17.882Z,8.90
2023-01-13T15:07:05.132Z,8.90
2023-01-13T15:09:55.229Z,8.90
2023-01-13T15:12:42.329Z,8.90
2023-01-13T15:15:32.788Z,8.90
2023-01-13T15:18:19.002Z,8.90
2023-01-13T15:21:05.711Z,8.90
2023-01-13T15:23:52.218Z,8.90
2023-01-13T15:26:40.241Z,8.90
2023-01-13T15:29:26.956Z,8.90
2023-01-13T15:32:19.278Z,9.00
2023-01-13T15:35:07.076Z,8.90
2023-01-13T15:37:55.802Z,8.90
2023-01-13T15:40:43.335Z,8.90
2023-01-13T15:43:52.130Z,8.90
2023-01-13T15:46:38.906Z,8.90
2023-01-13T15:49:34.654Z,8.70
2023-01-13T15:52:22.858Z,8.70
2023-01-13T15:55:10.211Z,8.60
2023-01-13T15:57:57.487Z,8.60
2023-01-13T16:00:45.311Z,8.60
2023-01-13T16:03:31.972Z,8.60
2023-01-13T16:06:21.348Z,8.50
2023-01-13T16:09:07.917Z,8.50
2023-01-13T16:11:54.809Z,8.50
2023-01-13T16:14:41.367Z,8.50
2023-01-13T16:17:29.625Z,8.50
2023-01-13T16:20:17.049Z,8.50
2023-01-13T16:23:04.534Z,8.60
2023-01-13T16:25:51.660Z,8.50
2023-01-13T16:28:38.243Z,8.60
2023-01-13T16:31:27.400Z,8.60
2023-01-13T16:34:15.619Z,8.60
2023-01-13T16:37:02.500Z,8.70
2023-01-13T16:39:49.089Z,8.70
2023-01-13T16:42:35.712Z,8.70
2023-01-13T16:45:22.087Z,8.70
2023-01-13T16:48:18.331Z,8.70
2023-01-13T16:51:06.791Z,8.60
2023-01-13T16:53:53.683Z,8.70
2023-01-13T16:56:40.329Z,8.70
2023-01-13T16:59:26.919Z,8.70
2023-01-13T17:02:14.654Z,8.80
2023-01-13T17:05:01.620Z,8.80
2023-01-13T17:07:49.621Z,8.80
2023-01-13T17:10:36.377Z,8.80
2023-01-13T17:13:24.412Z,8.90
2023-01-13T17:16:18.523Z,8.80
2023-01-13T17:19:04.975Z,8.80
2023-01-13T17:21:51.976Z,8.80
2023-01-13T17:24:39.968Z,8.80
2023-01-13T17:27:26.292Z,8.90
2023-01-13T17:30:14.455Z,8.90
2023-01-13T17:33:01.230Z,8.90
2023-01-13T17:35:47.367Z,9.00
2023-01-13T17:38:33.787Z,9.00
2023-01-13T17:41:21.510Z,9.00
2023-01-13T17:44:08.154Z,9.00
2023-01-13T17:46:55.126Z,9.00
2023-01-13T17:49:41.451Z,9.00
2023-01-13T17:52:27.788Z,8.90
2023-01-13T17:55:14.027Z,8.90
2023-01-13T17:58:01.876Z,8.90
2023-01-13T18:00:48.300Z,8.80
2023-01-13T18:03:34.958Z,8.80
2023-01-13T18:06:23.555Z,8.80
2023-01-13T18:09:10.346Z,8.80
2023-01-13T18:11:56.933Z,8.70
2023-01-13T18:14:44.678Z,8.70
2023-01-13T18:17:31.546Z,8.60
2023-01-13T18:20:36.789Z,8.60
2023-01-13T18:23:40.729Z,8.50
2023-01-13T18:26:46.327Z,8.50
2023-01-13T18:29:33.041Z,8.40
2023-01-13T18:32:22.649Z,8.40
2023-01-13T18:35:11.123Z,8.30
2023-01-13T18:37:57.935Z,8.20
2023-01-13T18:40:44.847Z,8.20
2023-01-13T18:43:32.879Z,8.30
2023-01-13T18:46:19.582Z,8.20
2023-01-13T18:49:07.786Z,8.20
2023-01-13T18:51:54.131Z,8.20
2023-01-13T18:54:40.536Z,8.10
2023-01-13T18:57:27.455Z,8.10
2023-01-13T19:00:17.177Z,8.10
2023-01-13T19:05:53.636Z,8.10
2023-01-13T19:08:40.235Z,8.20
2023-01-13T19:11:26.905Z,8.20
2023-01-13T19:14:13.456Z,8.20
2023-01-13T19:17:00.600Z,8.20
2023-01-13T19:19:50.655Z,8.20
2023-01-13T19:22:38.473Z,8.20
2023-01-13T19:25:24.890Z,8.20
2023-01-13T19:28:11.449Z,8.20
2023-01-13T19:31:01.178Z,8.20
2023-01-13T19:33:47.804Z,8.20
2023-01-13T19:36:34.169Z,8.20
2023-01-13T19:39:22.996Z,8.20
2023-01-13T19:42:28.307Z,8.20
2023-01-13T19:45:27.643Z,8.20
2023-01-13T19:48:16.213Z,8.20
2023-01-13T19:51:03.387Z,8.20
2023-01-13T19:53:49.939Z,8.20
2023-01-13T19:56:37.538Z,8.10
2023-01-13T19:59:29.122Z,8.10
2023-01-13T20:02:27.368Z,8.00
2023-01-13T20:05:17.936Z,8.00
2023-01-13T20:08:04.376Z,8.00
2023-01-13T20:11:11.097Z,8.00
2023-01-13T20:13:59.668Z,8.00
2023-01-13T20:16:46.380Z,8.00
2023-01-13T20:19:32.778Z,8.00
2023-01-13T20:22:19.260Z,8.00
2023-01-13T20:25:06.260Z,8.00
2023-01-13T20:27:53.122Z,8.00
2023-01-13T20:30:42.001Z,8.10
2023-01-13T20:33:28.504Z,8.10
2023-01-13T20:36:25.441Z,8.10
2023-01-13T20:39:15.862Z,8.10
2023-01-13T20:42:19.614Z,8.00
2023-01-13T20:45:07.528Z,8.00
2023-01-13T20:47:56.274Z,8.00
2023-01-13T20:50:42.922Z,8.00
2023-01-13T20:53:29.479Z,8.00
2023-01-13T20:56:15.740Z,8.00
2023-01-13T20:59:03.026Z,8.00
2023-01-13T21:01:49.330Z,8.00
2023-01-13T21:04:37.433Z,8.00
2023-01-13T21:07:24.018Z,8.10
2023-01-13T21:10:11.736Z,8.10
2023-01-13T21:13:15.553Z,8.10
2023-01-13T21:16:02.274Z,8.10
2023-01-13T21:19:06.605Z,8.20
2023-01-13T21:21:55.007Z,8.20
2023-01-13T21:24:41.350Z,8.10
2023-01-13T21:27:27.902Z,8.10
2023-01-13T21:30:16.916Z,8.10
2023-01-13T21:33:04.025Z,8.10
2023-01-13T21:35:50.910Z,8.00
2023-01-13T21:38:39.207Z,8.00
2023-01-13T21:41:44.465Z,8.00
2023-01-13T21:44:48.550Z,8.00
2023-01-13T21:47:49.979Z,8.00
2023-01-13T21:50:37.847Z,8.00
2023-01-13T21:53:24.289Z,8.10
2023-01-13T21:56:12.254Z,8.10
2023-01-13T21:58:58.763Z,8.10
2023-01-13T22:02:23.478Z,8.10
2023-01-13T22:04:51.940Z,8.20
2023-01-13T22:07:39.956Z,8.20
2023-01-13T22:10:28.312Z,8.20
2023-01-13T22:13:33.667Z,8.20
2023-01-13T22:16:20.608Z,8.10
2023-01-13T22:19:08.482Z,8.10
2023-01-13T22:21:54.913Z,8.20
2023-01-13T22:24:43.335Z,8.20
2023-01-13T22:27:30.946Z,8.20
2023-01-13T22:30:21.747Z,8.20
2023-01-13T22:33:08.477Z,8.20
2023-01-13T22:35:56.013Z,8.10
2023-01-13T22:38:42.875Z,8.10
2023-01-13T22:41:29.305Z,8.10
2023-01-13T22:44:15.813Z,8.10
2023-01-13T22:47:03.542Z,8.10
2023-01-13T22:49:50.313Z,8.10
2023-01-13T22:52:37.233Z,8.10
2023-01-13T22:55:23.918Z,8.10
2023-01-13T22:58:10.219Z,8.10
2023-01-13T23:00:57.147Z,8.00
2023-01-13T23:03:47.803Z,8.10
2023-01-13T23:06:35.346Z,8.00
2023-01-13T23:09:21.735Z,8.00
2023-01-13T23:12:08.431Z,7.90
2023-01-13T23:14:55.463Z,7.90
2023-01-13T23:17:41.804Z,7.80
2023-01-13T23:20:30.446Z,7.80
2023-01-13T23:23:16.947Z,7.80
2023-01-13T23:26:04.537Z,7.80
2023-01-13T23:28:51.217Z,7.80
2023-01-13T23:31:37.550Z,7.80
2023-01-13T23:34:23.915Z,7.80
2023-01-13T23:37:11.567Z,7.70
2023-01-13T23:39:58.235Z,7.70
2023-01-13T23:42:44.616Z,7.70
2023-01-13T23:45:30.839Z,7.80
2023-01-13T23:48:18.543Z,7.70
2023-01-13T23:51:07.597Z,7.80
2023-01-13T23:53:55.609Z,7.80
2023-01-13T23:56:42.442Z,7.80
2023-01-13T23:59:28.817Z,7.70
